sensor_id;sensor_type;location;lat;lon;timestamp;P1;durP1;ratioP1;P2;durP2;ratioP2
68214;SDS011;55036;52.138;5.236;2024-03-06T00:01:19;31.20;;;19.60;;
68214;SDS011;55036;52.138;5.236;2024-03-06T00:03:46;28.92;;;19.50;;
68214;SDS011;55036;52.138;5.236;2024-03-06T00:06:12;29.75;;;20.60;;
68214;SDS011;55036;52.138;5.236;2024-03-06T00:08:39;29.70;;;21.33;;
68214;SDS011;55036;52.138;5.236;2024-03-06T00:11:06;33.63;;;20.48;;
68214;SDS011;55036;52.138;5.236;2024-03-06T00:13:34;28.80;;;20.42;;
68214;SDS011;55036;52.138;5.236;2024-03-06T00:16:01;28.50;;;20.02;;
68214;SDS011;55036;52.138;5.236;2024-03-06T00:18:27;29.38;;;19.42;;
68214;SDS011;55036;52.138;5.236;2024-03-06T00:20:54;28.35;;;18.85;;
68214;SDS011;55036;52.138;5.236;2024-03-06T00:23:21;29.55;;;19.88;;
68214;SDS011;55036;52.138;5.236;2024-03-06T00:25:48;32.53;;;20.63;;
68214;SDS011;55036;52.138;5.236;2024-03-06T00:28:15;29.40;;;20.27;;
68214;SDS011;55036;52.138;5.236;2024-03-06T00:30:41;28.88;;;19.20;;
68214;SDS011;55036;52.138;5.236;2024-03-06T00:33:08;28.20;;;19.25;;
68214;SDS011;55036;52.138;5.236;2024-03-06T00:35:35;27.75;;;19.92;;
68214;SDS011;55036;52.138;5.236;2024-03-06T00:38:02;31.67;;;20.83;;
68214;SDS011;55036;52.138;5.236;2024-03-06T00:40:29;31.55;;;19.85;;
68214;SDS011;55036;52.138;5.236;2024-03-06T00:42:59;30.70;;;21.02;;
68214;SDS011;55036;52.138;5.236;2024-03-06T00:45:26;31.58;;;19.98;;
68214;SDS011;55036;52.138;5.236;2024-03-06T00:47:52;28.35;;;19.75;;
68214;SDS011;55036;52.138;5.236;2024-03-06T00:50:19;33.42;;;20.55;;
68214;SDS011;55036;52.138;5.236;2024-03-06T00:52:48;29.95;;;20.63;;
68214;SDS011;55036;52.138;5.236;2024-03-06T00:55:15;31.42;;;19.77;;
68214;SDS011;55036;52.138;5.236;2024-03-06T00:57:42;29.80;;;19.25;;
68214;SDS011;55036;52.138;5.236;2024-03-06T01:00:08;28.20;;;19.10;;
68214;SDS011;55036;52.138;5.236;2024-03-06T01:02:39;32.42;;;19.55;;
68214;SDS011;55036;52.138;5.236;2024-03-06T01:05:06;30.00;;;20.58;;
68214;SDS011;55036;52.138;5.236;2024-03-06T01:07:33;27.40;;;19.85;;
68214;SDS011;55036;52.138;5.236;2024-03-06T01:10:01;30.63;;;20.08;;
68214;SDS011;55036;52.138;5.236;2024-03-06T01:12:28;28.77;;;20.25;;
68214;SDS011;55036;52.138;5.236;2024-03-06T01:14:55;31.13;;;20.52;;
68214;SDS011;55036;52.138;5.236;2024-03-06T01:17:22;30.35;;;21.05;;
68214;SDS011;55036;52.138;5.236;2024-03-06T01:19:49;28.75;;;19.52;;
68214;SDS011;55036;52.138;5.236;2024-03-06T01:22:16;27.60;;;20.10;;
68214;SDS011;55036;52.138;5.236;2024-03-06T01:24:43;32.03;;;20.83;;
68214;SDS011;55036;52.138;5.236;2024-03-06T01:27:10;26.58;;;18.77;;
68214;SDS011;55036;52.138;5.236;2024-03-06T01:29:37;28.65;;;19.83;;
68214;SDS011;55036;52.138;5.236;2024-03-06T01:32:04;28.88;;;20.30;;
68214;SDS011;55036;52.138;5.236;2024-03-06T01:34:31;27.83;;;18.58;;
68214;SDS011;55036;52.138;5.236;2024-03-06T01:36:58;29.20;;;19.90;;
68214;SDS011;55036;52.138;5.236;2024-03-06T01:39:24;30.35;;;20.63;;
68214;SDS011;55036;52.138;5.236;2024-03-06T01:41:51;28.52;;;19.20;;
68214;SDS011;55036;52.138;5.236;2024-03-06T01:44:18;28.25;;;20.27;;
68214;SDS011;55036;52.138;5.236;2024-03-06T01:46:45;28.45;;;19.25;;
68214;SDS011;55036;52.138;5.236;2024-03-06T01:49:13;30.27;;;19.50;;
68214;SDS011;55036;52.138;5.236;2024-03-06T01:51:54;29.73;;;20.25;;
68214;SDS011;55036;52.138;5.236;2024-03-06T01:54:23;31.90;;;20.02;;
68214;SDS011;55036;52.138;5.236;2024-03-06T01:56:51;37.70;;;22.73;;
68214;SDS011;55036;52.138;5.236;2024-03-06T01:59:19;32.78;;;21.55;;
68214;SDS011;55036;52.138;5.236;2024-03-06T02:02:01;34.88;;;23.17;;
68214;SDS011;55036;52.138;5.236;2024-03-06T02:04:29;37.13;;;22.98;;
68214;SDS011;55036;52.138;5.236;2024-03-06T02:06:57;36.78;;;23.40;;
68214;SDS011;55036;52.138;5.236;2024-03-06T02:09:24;36.35;;;24.85;;
68214;SDS011;55036;52.138;5.236;2024-03-06T02:11:51;39.47;;;25.65;;
68214;SDS011;55036;52.138;5.236;2024-03-06T02:14:17;33.88;;;24.00;;
68214;SDS011;55036;52.138;5.236;2024-03-06T02:16:44;38.42;;;24.30;;
68214;SDS011;55036;52.138;5.236;2024-03-06T02:19:11;36.85;;;24.45;;
68214;SDS011;55036;52.138;5.236;2024-03-06T02:21:38;38.78;;;24.70;;
68214;SDS011;55036;52.138;5.236;2024-03-06T02:24:05;33.38;;;23.20;;
68214;SDS011;55036;52.138;5.236;2024-03-06T02:26:32;36.15;;;23.02;;
68214;SDS011;55036;52.138;5.236;2024-03-06T02:28:58;39.38;;;24.25;;
68214;SDS011;55036;52.138;5.236;2024-03-06T02:31:26;40.38;;;24.65;;
68214;SDS011;55036;52.138;5.236;2024-03-06T02:33:52;42.63;;;25.33;;
68214;SDS011;55036;52.138;5.236;2024-03-06T02:36:19;42.00;;;26.33;;
68214;SDS011;55036;52.138;5.236;2024-03-06T02:38:46;37.35;;;24.77;;
68214;SDS011;55036;52.138;5.236;2024-03-06T02:41:13;37.97;;;23.95;;
68214;SDS011;55036;52.138;5.236;2024-03-06T02:43:42;38.95;;;24.27;;
68214;SDS011;55036;52.138;5.236;2024-03-06T02:46:09;38.95;;;24.70;;
68214;SDS011;55036;52.138;5.236;2024-03-06T02:48:36;42.47;;;25.08;;
68214;SDS011;55036;52.138;5.236;2024-03-06T02:51:02;39.05;;;25.50;;
68214;SDS011;55036;52.138;5.236;2024-03-06T02:53:29;45.45;;;27.15;;
68214;SDS011;55036;52.138;5.236;2024-03-06T02:55:56;42.05;;;27.10;;
68214;SDS011;55036;52.138;5.236;2024-03-06T02:58:23;38.45;;;24.23;;
68214;SDS011;55036;52.138;5.236;2024-03-06T03:00:49;37.03;;;24.40;;
68214;SDS011;55036;52.138;5.236;2024-03-06T03:03:16;36.00;;;24.80;;
68214;SDS011;55036;52.138;5.236;2024-03-06T03:05:43;38.20;;;25.52;;
68214;SDS011;55036;52.138;5.236;2024-03-06T03:08:10;39.88;;;25.40;;
68214;SDS011;55036;52.138;5.236;2024-03-06T03:10:37;36.47;;;25.17;;
68214;SDS011;55036;52.138;5.236;2024-03-06T03:13:03;45.92;;;26.73;;
68214;SDS011;55036;52.138;5.236;2024-03-06T03:15:31;41.35;;;24.98;;
68214;SDS011;55036;52.138;5.236;2024-03-06T03:18:04;38.03;;;24.80;;
68214;SDS011;55036;52.138;5.236;2024-03-06T03:20:31;46.45;;;26.65;;
68214;SDS011;55036;52.138;5.236;2024-03-06T03:22:58;43.53;;;25.38;;
68214;SDS011;55036;52.138;5.236;2024-03-06T03:25:26;44.50;;;26.17;;
68214;SDS011;55036;52.138;5.236;2024-03-06T03:27:52;41.13;;;25.83;;
68214;SDS011;55036;52.138;5.236;2024-03-06T03:30:19;37.85;;;25.13;;
68214;SDS011;55036;52.138;5.236;2024-03-06T03:32:47;43.95;;;26.85;;
68214;SDS011;55036;52.138;5.236;2024-03-06T03:35:15;39.10;;;25.33;;
68214;SDS011;55036;52.138;5.236;2024-03-06T03:37:42;39.25;;;25.25;;
68214;SDS011;55036;52.138;5.236;2024-03-06T03:40:09;43.33;;;25.98;;
68214;SDS011;55036;52.138;5.236;2024-03-06T03:42:38;46.13;;;27.35;;
68214;SDS011;55036;52.138;5.236;2024-03-06T03:45:05;39.03;;;26.05;;
68214;SDS011;55036;52.138;5.236;2024-03-06T03:47:32;43.20;;;26.17;;
68214;SDS011;55036;52.138;5.236;2024-03-06T03:49:59;39.50;;;26.60;;
68214;SDS011;55036;52.138;5.236;2024-03-06T03:52:36;45.53;;;26.33;;
68214;SDS011;55036;52.138;5.236;2024-03-06T03:55:08;41.33;;;26.38;;
68214;SDS011;55036;52.138;5.236;2024-03-06T03:57:35;40.78;;;26.45;;
68214;SDS011;55036;52.138;5.236;2024-03-06T04:00:02;40.33;;;26.80;;
68214;SDS011;55036;52.138;5.236;2024-03-06T04:02:29;44.75;;;27.40;;
68214;SDS011;55036;52.138;5.236;2024-03-06T04:04:55;44.10;;;25.63;;
68214;SDS011;55036;52.138;5.236;2024-03-06T04:07:22;45.13;;;28.13;;
68214;SDS011;55036;52.138;5.236;2024-03-06T04:09:49;42.20;;;27.58;;
68214;SDS011;55036;52.138;5.236;2024-03-06T04:12:16;44.60;;;27.73;;
68214;SDS011;55036;52.138;5.236;2024-03-06T04:14:43;43.90;;;26.58;;
68214;SDS011;55036;52.138;5.236;2024-03-06T04:17:10;39.60;;;25.88;;
68214;SDS011;55036;52.138;5.236;2024-03-06T04:19:36;41.35;;;26.95;;
68214;SDS011;55036;52.138;5.236;2024-03-06T04:22:03;42.92;;;26.58;;
68214;SDS011;55036;52.138;5.236;2024-03-06T04:24:30;43.50;;;27.63;;
68214;SDS011;55036;52.138;5.236;2024-03-06T04:26:56;40.70;;;26.88;;
68214;SDS011;55036;52.138;5.236;2024-03-06T04:29:23;43.53;;;27.10;;
68214;SDS011;55036;52.138;5.236;2024-03-06T04:31:50;42.90;;;27.63;;
68214;SDS011;55036;52.138;5.236;2024-03-06T04:34:16;39.58;;;26.30;;
68214;SDS011;55036;52.138;5.236;2024-03-06T04:36:43;41.30;;;26.15;;
68214;SDS011;55036;52.138;5.236;2024-03-06T04:39:10;40.15;;;26.95;;
68214;SDS011;55036;52.138;5.236;2024-03-06T04:41:38;40.95;;;25.30;;
68214;SDS011;55036;52.138;5.236;2024-03-06T04:44:04;41.60;;;26.60;;
68214;SDS011;55036;52.138;5.236;2024-03-06T04:46:32;41.70;;;27.85;;
68214;SDS011;55036;52.138;5.236;2024-03-06T04:48:59;41.78;;;26.08;;
68214;SDS011;55036;52.138;5.236;2024-03-06T04:51:25;45.08;;;27.08;;
68214;SDS011;55036;52.138;5.236;2024-03-06T04:53:52;45.53;;;27.38;;
68214;SDS011;55036;52.138;5.236;2024-03-06T04:56:19;43.10;;;27.63;;
68214;SDS011;55036;52.138;5.236;2024-03-06T04:58:47;41.25;;;27.58;;
68214;SDS011;55036;52.138;5.236;2024-03-06T05:01:14;42.45;;;27.83;;
68214;SDS011;55036;52.138;5.236;2024-03-06T05:03:40;40.20;;;27.30;;
68214;SDS011;55036;52.138;5.236;2024-03-06T05:06:24;39.67;;;26.20;;
68214;SDS011;55036;52.138;5.236;2024-03-06T05:09:09;42.58;;;26.02;;
68214;SDS011;55036;52.138;5.236;2024-03-06T05:11:55;44.60;;;27.30;;
68214;SDS011;55036;52.138;5.236;2024-03-06T05:14:39;42.42;;;27.50;;
68214;SDS011;55036;52.138;5.236;2024-03-06T05:17:23;40.53;;;26.73;;
68214;SDS011;55036;52.138;5.236;2024-03-06T05:20:07;39.60;;;25.70;;
68214;SDS011;55036;52.138;5.236;2024-03-06T05:22:51;41.13;;;27.30;;
68214;SDS011;55036;52.138;5.236;2024-03-06T05:25:35;42.95;;;27.20;;
68214;SDS011;55036;52.138;5.236;2024-03-06T05:28:20;43.35;;;25.60;;
68214;SDS011;55036;52.138;5.236;2024-03-06T05:31:13;41.83;;;25.40;;
68214;SDS011;55036;52.138;5.236;2024-03-06T05:34:03;47.53;;;25.85;;
68214;SDS011;55036;52.138;5.236;2024-03-06T05:36:49;40.35;;;25.00;;
68214;SDS011;55036;52.138;5.236;2024-03-06T05:39:33;42.45;;;26.08;;
68214;SDS011;55036;52.138;5.236;2024-03-06T05:42:19;40.40;;;25.60;;
68214;SDS011;55036;52.138;5.236;2024-03-06T05:45:03;42.50;;;25.85;;
68214;SDS011;55036;52.138;5.236;2024-03-06T05:47:54;43.07;;;26.37;;
68214;SDS011;55036;52.138;5.236;2024-03-06T05:50:38;44.90;;;26.83;;
68214;SDS011;55036;52.138;5.236;2024-03-06T05:53:22;44.80;;;27.80;;
68214;SDS011;55036;52.138;5.236;2024-03-06T05:56:07;47.28;;;27.63;;
68214;SDS011;55036;52.138;5.236;2024-03-06T05:58:51;39.05;;;25.25;;
68214;SDS011;55036;52.138;5.236;2024-03-06T06:01:18;41.40;;;25.55;;
68214;SDS011;55036;52.138;5.236;2024-03-06T06:03:48;41.60;;;26.00;;
68214;SDS011;55036;52.138;5.236;2024-03-06T06:06:15;45.40;;;27.25;;
68214;SDS011;55036;52.138;5.236;2024-03-06T06:08:42;40.50;;;26.08;;
68214;SDS011;55036;52.138;5.236;2024-03-06T06:11:10;37.47;;;25.33;;
68214;SDS011;55036;52.138;5.236;2024-03-06T06:13:38;36.70;;;25.00;;
68214;SDS011;55036;52.138;5.236;2024-03-06T06:16:08;37.50;;;24.25;;
68214;SDS011;55036;52.138;5.236;2024-03-06T06:18:34;41.20;;;25.42;;
68214;SDS011;55036;52.138;5.236;2024-03-06T06:21:01;37.45;;;24.45;;
68214;SDS011;55036;52.138;5.236;2024-03-06T06:23:33;40.55;;;27.08;;
68214;SDS011;55036;52.138;5.236;2024-03-06T06:26:00;41.20;;;24.75;;
68214;SDS011;55036;52.138;5.236;2024-03-06T06:28:28;44.35;;;27.25;;
68214;SDS011;55036;52.138;5.236;2024-03-06T06:30:54;49.17;;;29.13;;
68214;SDS011;55036;52.138;5.236;2024-03-06T06:33:21;47.70;;;28.70;;
68214;SDS011;55036;52.138;5.236;2024-03-06T06:35:48;53.30;;;29.40;;
68214;SDS011;55036;52.138;5.236;2024-03-06T06:38:15;296.63;;;34.40;;
68214;SDS011;55036;52.138;5.236;2024-03-06T06:40:41;269.60;;;36.63;;
68214;SDS011;55036;52.138;5.236;2024-03-06T06:43:08;262.55;;;34.22;;
68214;SDS011;55036;52.138;5.236;2024-03-06T06:45:35;239.02;;;34.28;;
68214;SDS011;55036;52.138;5.236;2024-03-06T06:48:04;188.95;;;34.58;;
68214;SDS011;55036;52.138;5.236;2024-03-06T06:50:31;61.70;;;30.23;;
68214;SDS011;55036;52.138;5.236;2024-03-06T06:52:59;145.57;;;33.42;;
68214;SDS011;55036;52.138;5.236;2024-03-06T06:55:26;344.35;;;36.20;;
68214;SDS011;55036;52.138;5.236;2024-03-06T06:57:53;317.17;;;34.88;;
68214;SDS011;55036;52.138;5.236;2024-03-06T07:00:20;235.27;;;31.95;;
68214;SDS011;55036;52.138;5.236;2024-03-06T07:02:49;202.55;;;30.77;;
68214;SDS011;55036;52.138;5.236;2024-03-06T07:05:16;155.00;;;30.85;;
68214;SDS011;55036;52.138;5.236;2024-03-06T07:07:42;138.48;;;28.17;;
68214;SDS011;55036;52.138;5.236;2024-03-06T07:10:09;254.05;;;32.17;;
68214;SDS011;55036;52.138;5.236;2024-03-06T07:12:37;217.65;;;30.10;;
68214;SDS011;55036;52.138;5.236;2024-03-06T07:15:04;76.88;;;30.70;;
68214;SDS011;55036;52.138;5.236;2024-03-06T07:17:31;150.43;;;31.08;;
68214;SDS011;55036;52.138;5.236;2024-03-06T07:19:58;147.38;;;31.30;;
68214;SDS011;55036;52.138;5.236;2024-03-06T07:22:25;118.30;;;29.38;;
68214;SDS011;55036;52.138;5.236;2024-03-06T07:24:52;101.00;;;29.13;;
68214;SDS011;55036;52.138;5.236;2024-03-06T07:27:18;181.65;;;30.58;;
68214;SDS011;55036;52.138;5.236;2024-03-06T07:29:45;104.20;;;28.42;;
68214;SDS011;55036;52.138;5.236;2024-03-06T07:32:12;101.88;;;29.35;;
68214;SDS011;55036;52.138;5.236;2024-03-06T07:34:38;202.15;;;30.70;;
68214;SDS011;55036;52.138;5.236;2024-03-06T07:37:05;81.57;;;27.13;;
68214;SDS011;55036;52.138;5.236;2024-03-06T07:39:32;78.28;;;28.75;;
68214;SDS011;55036;52.138;5.236;2024-03-06T07:41:59;77.90;;;27.75;;
68214;SDS011;55036;52.138;5.236;2024-03-06T07:44:25;72.13;;;27.67;;
68214;SDS011;55036;52.138;5.236;2024-03-06T07:46:52;65.60;;;27.10;;
68214;SDS011;55036;52.138;5.236;2024-03-06T07:49:20;83.65;;;26.35;;
68214;SDS011;55036;52.138;5.236;2024-03-06T07:51:50;102.88;;;30.02;;
68214;SDS011;55036;52.138;5.236;2024-03-06T07:54:16;46.15;;;29.20;;
68214;SDS011;55036;52.138;5.236;2024-03-06T07:56:43;84.75;;;29.90;;
68214;SDS011;55036;52.138;5.236;2024-03-06T07:59:10;57.17;;;28.10;;
68214;SDS011;55036;52.138;5.236;2024-03-06T08:01:39;67.45;;;30.75;;
68214;SDS011;55036;52.138;5.236;2024-03-06T08:04:06;61.97;;;30.42;;
68214;SDS011;55036;52.138;5.236;2024-03-06T08:06:33;52.63;;;29.80;;
68214;SDS011;55036;52.138;5.236;2024-03-06T08:09:03;80.30;;;29.58;;
68214;SDS011;55036;52.138;5.236;2024-03-06T08:11:31;107.43;;;30.40;;
68214;SDS011;55036;52.138;5.236;2024-03-06T08:13:58;59.67;;;30.40;;
68214;SDS011;55036;52.138;5.236;2024-03-06T08:16:25;76.07;;;29.42;;
68214;SDS011;55036;52.138;5.236;2024-03-06T08:18:52;83.80;;;32.60;;
68214;SDS011;55036;52.138;5.236;2024-03-06T08:21:18;103.47;;;31.20;;
68214;SDS011;55036;52.138;5.236;2024-03-06T08:23:46;66.22;;;31.98;;
68214;SDS011;55036;52.138;5.236;2024-03-06T08:26:16;74.45;;;32.38;;
68214;SDS011;55036;52.138;5.236;2024-03-06T08:28:43;72.68;;;32.08;;
68214;SDS011;55036;52.138;5.236;2024-03-06T08:31:09;69.13;;;29.73;;
68214;SDS011;55036;52.138;5.236;2024-03-06T08:33:36;54.35;;;31.20;;
68214;SDS011;55036;52.138;5.236;2024-03-06T08:36:03;45.80;;;29.52;;
68214;SDS011;55036;52.138;5.236;2024-03-06T08:38:30;51.15;;;29.55;;
68214;SDS011;55036;52.138;5.236;2024-03-06T08:40:57;57.25;;;29.90;;
68214;SDS011;55036;52.138;5.236;2024-03-06T08:43:24;50.38;;;31.35;;
68214;SDS011;55036;52.138;5.236;2024-03-06T08:45:52;58.92;;;30.92;;
68214;SDS011;55036;52.138;5.236;2024-03-06T08:48:20;52.13;;;30.05;;
68214;SDS011;55036;52.138;5.236;2024-03-06T08:50:47;49.95;;;29.98;;
68214;SDS011;55036;52.138;5.236;2024-03-06T08:53:15;51.45;;;30.05;;
68214;SDS011;55036;52.138;5.236;2024-03-06T08:55:43;47.10;;;29.70;;
68214;SDS011;55036;52.138;5.236;2024-03-06T08:58:09;45.30;;;28.55;;
68214;SDS011;55036;52.138;5.236;2024-03-06T09:00:36;51.03;;;30.35;;
68214;SDS011;55036;52.138;5.236;2024-03-06T09:03:03;47.58;;;30.13;;
68214;SDS011;55036;52.138;5.236;2024-03-06T09:05:31;48.63;;;30.95;;
68214;SDS011;55036;52.138;5.236;2024-03-06T09:07:58;44.45;;;29.65;;
68214;SDS011;55036;52.138;5.236;2024-03-06T09:10:28;43.70;;;29.40;;
68214;SDS011;55036;52.138;5.236;2024-03-06T09:12:54;46.65;;;31.13;;
68214;SDS011;55036;52.138;5.236;2024-03-06T09:15:21;44.65;;;28.02;;
68214;SDS011;55036;52.138;5.236;2024-03-06T09:17:48;44.95;;;29.67;;
68214;SDS011;55036;52.138;5.236;2024-03-06T09:20:15;46.50;;;30.17;;
68214;SDS011;55036;52.138;5.236;2024-03-06T09:22:42;44.67;;;29.05;;
68214;SDS011;55036;52.138;5.236;2024-03-06T09:25:10;50.58;;;31.63;;
68214;SDS011;55036;52.138;5.236;2024-03-06T09:27:39;44.85;;;28.65;;
68214;SDS011;55036;52.138;5.236;2024-03-06T09:30:06;41.33;;;27.08;;
68214;SDS011;55036;52.138;5.236;2024-03-06T09:32:35;42.80;;;28.00;;
68214;SDS011;55036;52.138;5.236;2024-03-06T09:35:03;43.30;;;28.95;;
68214;SDS011;55036;52.138;5.236;2024-03-06T09:37:30;43.30;;;27.90;;
68214;SDS011;55036;52.138;5.236;2024-03-06T09:39:57;39.78;;;23.83;;
68214;SDS011;55036;52.138;5.236;2024-03-06T09:42:24;44.42;;;28.90;;
68214;SDS011;55036;52.138;5.236;2024-03-06T09:44:51;44.40;;;25.83;;
68214;SDS011;55036;52.138;5.236;2024-03-06T09:47:20;44.97;;;30.50;;
68214;SDS011;55036;52.138;5.236;2024-03-06T09:49:52;45.90;;;30.02;;
68214;SDS011;55036;52.138;5.236;2024-03-06T09:52:23;44.15;;;29.05;;
68214;SDS011;55036;52.138;5.236;2024-03-06T09:54:56;44.03;;;29.07;;
68214;SDS011;55036;52.138;5.236;2024-03-06T09:57:23;40.40;;;27.80;;
68214;SDS011;55036;52.138;5.236;2024-03-06T09:59:50;37.85;;;28.23;;
68214;SDS011;55036;52.138;5.236;2024-03-06T10:02:19;44.75;;;29.63;;
68214;SDS011;55036;52.138;5.236;2024-03-06T10:05:03;37.80;;;26.95;;
68214;SDS011;55036;52.138;5.236;2024-03-06T10:07:31;38.20;;;25.38;;
68214;SDS011;55036;52.138;5.236;2024-03-06T10:09:58;37.35;;;25.65;;
68214;SDS011;55036;52.138;5.236;2024-03-06T10:12:25;35.80;;;26.00;;
68214;SDS011;55036;52.138;5.236;2024-03-06T10:14:55;36.58;;;25.00;;
68214;SDS011;55036;52.138;5.236;2024-03-06T10:17:23;34.92;;;24.02;;
68214;SDS011;55036;52.138;5.236;2024-03-06T10:19:50;33.33;;;22.75;;
68214;SDS011;55036;52.138;5.236;2024-03-06T10:22:18;32.63;;;22.80;;
68214;SDS011;55036;52.138;5.236;2024-03-06T10:24:46;29.35;;;22.35;;
68214;SDS011;55036;52.138;5.236;2024-03-06T10:27:14;32.85;;;20.95;;
68214;SDS011;55036;52.138;5.236;2024-03-06T10:29:45;24.08;;;17.75;;
68214;SDS011;55036;52.138;5.236;2024-03-06T10:32:15;26.02;;;18.30;;
68214;SDS011;55036;52.138;5.236;2024-03-06T10:34:45;24.67;;;17.92;;
68214;SDS011;55036;52.138;5.236;2024-03-06T10:37:12;25.05;;;18.05;;
68214;SDS011;55036;52.138;5.236;2024-03-06T10:39:41;22.10;;;16.55;;
68214;SDS011;55036;52.138;5.236;2024-03-06T10:42:12;26.63;;;17.42;;
68214;SDS011;55036;52.138;5.236;2024-03-06T10:44:41;21.58;;;16.02;;
68214;SDS011;55036;52.138;5.236;2024-03-06T10:47:21;23.83;;;17.02;;
68214;SDS011;55036;52.138;5.236;2024-03-06T10:49:50;23.80;;;17.63;;
68214;SDS011;55036;52.138;5.236;2024-03-06T10:52:17;21.30;;;15.38;;
68214;SDS011;55036;52.138;5.236;2024-03-06T10:54:45;19.35;;;14.32;;
68214;SDS011;55036;52.138;5.236;2024-03-06T10:57:14;19.77;;;14.48;;
68214;SDS011;55036;52.138;5.236;2024-03-06T10:59:41;17.40;;;13.43;;
68214;SDS011;55036;52.138;5.236;2024-03-06T11:02:09;18.98;;;14.02;;
68214;SDS011;55036;52.138;5.236;2024-03-06T11:04:39;19.70;;;14.45;;
68214;SDS011;55036;52.138;5.236;2024-03-06T11:07:07;20.48;;;14.57;;
68214;SDS011;55036;52.138;5.236;2024-03-06T11:09:39;15.80;;;11.15;;
68214;SDS011;55036;52.138;5.236;2024-03-06T11:12:06;15.02;;;11.30;;
68214;SDS011;55036;52.138;5.236;2024-03-06T11:14:37;12.40;;;9.27;;
68214;SDS011;55036;52.138;5.236;2024-03-06T11:17:06;11.48;;;8.10;;
68214;SDS011;55036;52.138;5.236;2024-03-06T11:20:21;11.68;;;7.70;;
68214;SDS011;55036;52.138;5.236;2024-03-06T11:28:22;13.18;;;8.23;;
68214;SDS011;55036;52.138;5.236;2024-03-06T11:33:20;13.13;;;7.05;;
68214;SDS011;55036;52.138;5.236;2024-03-06T11:38:57;12.18;;;7.30;;
68214;SDS011;55036;52.138;5.236;2024-03-06T11:41:30;10.25;;;8.18;;
68214;SDS011;55036;52.138;5.236;2024-03-06T11:44:12;10.18;;;6.80;;
68214;SDS011;55036;52.138;5.236;2024-03-06T11:49:25;8.70;;;6.50;;
68214;SDS011;55036;52.138;5.236;2024-03-06T11:51:56;9.18;;;5.88;;
68214;SDS011;55036;52.138;5.236;2024-03-06T11:54:26;7.88;;;4.97;;
68214;SDS011;55036;52.138;5.236;2024-03-06T11:56:54;8.70;;;5.43;;
68214;SDS011;55036;52.138;5.236;2024-03-06T11:59:40;9.60;;;6.80;;
68214;SDS011;55036;52.138;5.236;2024-03-06T12:02:07;9.30;;;7.28;;
68214;SDS011;55036;52.138;5.236;2024-03-06T12:04:37;12.93;;;8.32;;
68214;SDS011;55036;52.138;5.236;2024-03-06T12:07:05;11.45;;;7.70;;
68214;SDS011;55036;52.138;5.236;2024-03-06T12:09:33;7.65;;;6.85;;
68214;SDS011;55036;52.138;5.236;2024-03-06T12:12:07;12.02;;;7.35;;
68214;SDS011;55036;52.138;5.236;2024-03-06T12:14:35;10.25;;;6.40;;
68214;SDS011;55036;52.138;5.236;2024-03-06T12:17:02;9.35;;;7.35;;
68214;SDS011;55036;52.138;5.236;2024-03-06T12:22:01;9.60;;;6.65;;
68214;SDS011;55036;52.138;5.236;2024-03-06T12:24:31;9.57;;;6.60;;
68214;SDS011;55036;52.138;5.236;2024-03-06T12:27:05;12.27;;;7.45;;
68214;SDS011;55036;52.138;5.236;2024-03-06T12:29:34;12.00;;;7.80;;
68214;SDS011;55036;52.138;5.236;2024-03-06T12:32:01;13.63;;;7.57;;
68214;SDS011;55036;52.138;5.236;2024-03-06T12:34:29;9.68;;;6.43;;
68214;SDS011;55036;52.138;5.236;2024-03-06T12:37:08;11.00;;;5.68;;
68214;SDS011;55036;52.138;5.236;2024-03-06T12:39:37;8.93;;;4.60;;
68214;SDS011;55036;52.138;5.236;2024-03-06T12:42:08;5.38;;;3.80;;
68214;SDS011;55036;52.138;5.236;2024-03-06T12:44:36;7.28;;;5.15;;
68214;SDS011;55036;52.138;5.236;2024-03-06T12:47:03;9.50;;;5.57;;
68214;SDS011;55036;52.138;5.236;2024-03-06T12:49:30;7.50;;;4.25;;
68214;SDS011;55036;52.138;5.236;2024-03-06T12:51:57;10.55;;;5.15;;
68214;SDS011;55036;52.138;5.236;2024-03-06T12:54:26;7.38;;;4.90;;
68214;SDS011;55036;52.138;5.236;2024-03-06T12:56:53;7.43;;;4.43;;
68214;SDS011;55036;52.138;5.236;2024-03-06T12:59:20;9.63;;;4.65;;
68214;SDS011;55036;52.138;5.236;2024-03-06T13:01:46;6.53;;;4.05;;
68214;SDS011;55036;52.138;5.236;2024-03-06T13:04:13;6.57;;;4.25;;
68214;SDS011;55036;52.138;5.236;2024-03-06T13:06:40;8.25;;;3.97;;
68214;SDS011;55036;52.138;5.236;2024-03-06T13:09:07;6.65;;;4.65;;
68214;SDS011;55036;52.138;5.236;2024-03-06T13:11:33;5.78;;;4.47;;
68214;SDS011;55036;52.138;5.236;2024-03-06T13:14:00;5.90;;;3.10;;
68214;SDS011;55036;52.138;5.236;2024-03-06T13:16:27;5.90;;;3.38;;
68214;SDS011;55036;52.138;5.236;2024-03-06T13:18:54;5.63;;;3.33;;
68214;SDS011;55036;52.138;5.236;2024-03-06T13:21:23;5.20;;;3.17;;
68214;SDS011;55036;52.138;5.236;2024-03-06T13:23:49;9.18;;;4.13;;
68214;SDS011;55036;52.138;5.236;2024-03-06T13:26:16;10.07;;;6.45;;
68214;SDS011;55036;52.138;5.236;2024-03-06T13:28:44;10.68;;;7.55;;
68214;SDS011;55036;52.138;5.236;2024-03-06T13:31:12;12.20;;;7.13;;
68214;SDS011;55036;52.138;5.236;2024-03-06T13:33:39;8.30;;;6.70;;
68214;SDS011;55036;52.138;5.236;2024-03-06T13:36:06;9.70;;;7.30;;
68214;SDS011;55036;52.138;5.236;2024-03-06T13:38:34;9.13;;;7.72;;
68214;SDS011;55036;52.138;5.236;2024-03-06T13:41:01;11.27;;;7.95;;
68214;SDS011;55036;52.138;5.236;2024-03-06T13:43:29;10.63;;;7.53;;
68214;SDS011;55036;52.138;5.236;2024-03-06T13:45:55;12.40;;;8.55;;
68214;SDS011;55036;52.138;5.236;2024-03-06T13:48:23;10.98;;;7.93;;
68214;SDS011;55036;52.138;5.236;2024-03-06T13:50:49;11.93;;;7.43;;
68214;SDS011;55036;52.138;5.236;2024-03-06T13:53:16;9.48;;;7.47;;
68214;SDS011;55036;52.138;5.236;2024-03-06T13:55:43;11.82;;;7.20;;
68214;SDS011;55036;52.138;5.236;2024-03-06T13:58:10;10.93;;;7.15;;
68214;SDS011;55036;52.138;5.236;2024-03-06T14:00:37;10.85;;;7.30;;
68214;SDS011;55036;52.138;5.236;2024-03-06T14:03:04;12.02;;;7.90;;
68214;SDS011;55036;52.138;5.236;2024-03-06T14:05:31;8.73;;;6.25;;
68214;SDS011;55036;52.138;5.236;2024-03-06T14:07:58;8.65;;;6.82;;
68214;SDS011;55036;52.138;5.236;2024-03-06T14:10:25;10.65;;;6.45;;
68214;SDS011;55036;52.138;5.236;2024-03-06T14:12:52;10.77;;;6.70;;
68214;SDS011;55036;52.138;5.236;2024-03-06T14:15:21;8.38;;;5.40;;
68214;SDS011;55036;52.138;5.236;2024-03-06T14:17:49;7.57;;;5.63;;
68214;SDS011;55036;52.138;5.236;2024-03-06T14:20:16;8.50;;;5.65;;
68214;SDS011;55036;52.138;5.236;2024-03-06T14:22:43;9.73;;;6.45;;
68214;SDS011;55036;52.138;5.236;2024-03-06T14:25:10;12.30;;;7.07;;
68214;SDS011;55036;52.138;5.236;2024-03-06T14:27:37;8.80;;;6.93;;
68214;SDS011;55036;52.138;5.236;2024-03-06T14:30:04;10.02;;;7.10;;
68214;SDS011;55036;52.138;5.236;2024-03-06T14:32:36;9.68;;;6.57;;
68214;SDS011;55036;52.138;5.236;2024-03-06T14:35:03;9.75;;;6.07;;
68214;SDS011;55036;52.138;5.236;2024-03-06T14:37:31;8.90;;;5.72;;
68214;SDS011;55036;52.138;5.236;2024-03-06T14:39:57;9.90;;;5.30;;
68214;SDS011;55036;52.138;5.236;2024-03-06T14:42:28;8.43;;;4.97;;
68214;SDS011;55036;52.138;5.236;2024-03-06T14:44:55;7.03;;;4.50;;
68214;SDS011;55036;52.138;5.236;2024-03-06T14:47:21;8.55;;;4.82;;
68214;SDS011;55036;52.138;5.236;2024-03-06T14:49:48;6.68;;;4.50;;
68214;SDS011;55036;52.138;5.236;2024-03-06T14:52:15;6.95;;;4.45;;